Time;durP1;ratioP1;P1;durP2;ratioP2;P2;SDS_P1;SDS_P2;PMS_P1;PMS_P2;Temp;Humidity;BMP_temperature;BMP_pressure;BME280_temperature;BME280_humidity;BME280_pressure;Samples;Min_cycle;Max_cycle;Signal;HPM_P1;HPM_P2
2022/09/02 00:01:18;;;;;;;7.47;4.38;;;15.90;99.90;;;15.09;84.63;97420.78;4973474;28;20466;-72
2022/09/02 00:03:46;;;;;;;7.13;4.17;;;15.90;99.90;;;15.05;84.79;97418.94;4973034;28;20416;-72
2022/09/02 00:06:13;;;;;;;8.63;3.88;;;15.90;99.90;;;15.00;84.33;97409.09;4973409;28;20908;-72
2022/09/02 00:08:42;;;;;;;9.57;4.45;;;15.80;99.90;;;14.99;86.92;97414.72;4973360;28;20412;-72
2022/09/02 00:11:13;;;;;;;8.18;3.97;;;15.80;99.90;;;14.98;84.40;97411.25;4973203;28;20407;-72
2022/09/02 00:13:39;;;;;;;4.93;3.85;;;15.80;99.90;;;14.95;86.26;97413.69;4972322;28;20452;-72
2022/09/02 00:16:06;;;;;;;6.03;4.00;;;15.80;99.90;;;14.91;87.86;97400.09;4973059;28;20451;-72
2022/09/02 00:18:32;;;;;;;5.63;4.45;;;15.80;99.90;;;14.87;89.06;97407.09;4973187;28;20404;-72
2022/09/02 00:20:59;;;;;;;8.65;4.68;;;15.80;99.90;;;14.87;88.34;97399.09;4973211;28;20807;-72
2022/09/02 00:23:26;;;;;;;7.90;4.50;;;15.80;99.90;;;14.87;88.04;97395.63;4972710;28;20478;-72
2022/09/02 00:25:53;;;;;;;7.68;4.13;;;15.70;99.90;;;14.85;85.59;97385.22;4972995;28;20408;-73
2022/09/02 00:28:20;;;;;;;6.53;4.45;;;15.70;99.90;;;14.79;88.64;97397.00;4973163;28;20629;-72
2022/09/02 00:30:46;;;;;;;7.88;4.40;;;15.70;99.90;;;14.73;90.20;97392.00;4972926;28;20404;-72
2022/09/02 00:33:13;;;;;;;5.45;4.47;;;15.60;99.90;;;14.71;90.52;97381.63;4972567;28;20885;-72
2022/09/02 00:35:40;;;;;;;5.13;4.53;;;15.60;99.90;;;14.68;91.31;97385.63;4972795;28;20430;-72
2022/09/02 00:38:07;;;;;;;7.93;4.47;;;15.60;99.90;;;14.67;92.48;97380.56;4972980;28;20451;-72
2022/09/02 00:40:34;;;;;;;5.40;4.90;;;15.60;99.90;;;14.66;93.26;97376.28;4972864;28;20417;-72
2022/09/02 00:43:06;;;;;;;6.03;4.90;;;15.60;99.90;;;14.64;93.60;97381.13;4972390;28;20550;-72
2022/09/02 00:45:32;;;;;;;9.05;4.93;;;15.50;99.90;;;14.60;91.90;97370.22;4972667;28;20408;-72
2022/09/02 00:47:59;;;;;;;9.73;5.32;;;15.50;99.90;;;14.60;91.01;97382.75;4972670;28;20466;-72
2022/09/02 00:50:31;;;;;;;7.20;5.13;;;15.50;99.90;;;14.53;92.57;97379.59;4972775;28;20969;-72
2022/09/02 00:53:08;;;;;;;10.02;5.35;;;15.40;99.90;;;14.51;91.48;97373.75;4972089;28;20447;-73
2022/09/02 00:55:40;;;;;;;9.15;4.95;;;15.40;99.90;;;14.51;86.72;97371.09;4972135;28;20420;-72
2022/09/02 00:58:15;;;;;;;6.70;5.20;;;15.30;99.90;;;14.39;89.79;97376.75;4972544;28;20882;-72
2022/09/02 01:00:45;;;;;;;7.47;5.13;;;15.30;99.90;;;14.34;89.54;97374.09;4972479;28;20408;-73
2022/09/02 01:03:17;;;;;;;7.30;4.63;;;15.20;99.90;;;14.30;88.49;97373.84;4971908;28;20408;-72
2022/09/02 01:05:47;;;;;;;6.57;4.93;;;15.20;99.90;;;14.33;86.96;97377.81;4972288;28;20420;-72
2022/09/02 01:08:18;;;;;;;10.35;4.80;;;15.20;99.90;;;14.26;87.13;97380.78;4972366;28;20400;-72
2022/09/02 01:10:46;;;;;;;6.55;4.80;;;15.20;99.90;;;14.23;88.52;97383.19;4972332;28;20411;-72
2022/09/02 01:13:19;;;;;;;10.77;6.28;;;15.10;99.90;;;14.15;91.03;97381.91;4971830;28;20408;-73
2022/09/02 01:15:50;;;;;;;10.07;5.40;;;15.10;99.90;;;14.18;87.67;97372.56;4972185;28;20599;-72
2022/09/02 01:18:20;;;;;;;8.65;5.07;;;15.00;99.90;;;14.11;89.83;97378.19;4972170;28;20416;-73
2022/09/02 01:20:47;;;;;;;8.57;6.13;;;15.00;99.90;;;14.08;91.22;97380.59;4972096;28;20401;-73
2022/09/02 01:23:16;;;;;;;7.93;5.85;;;15.00;99.90;;;14.05;91.44;97375.84;4971629;28;20415;-73
2022/09/02 01:25:43;;;;;;;8.50;5.55;;;15.00;99.90;;;14.06;90.07;97370.22;4971178;28;20405;-72
2022/09/02 01:28:13;;;;;;;9.63;5.23;;;15.00;99.90;;;14.05;88.63;97373.19;4971905;28;20412;-73
2022/09/02 01:30:43;;;;;;;7.17;5.93;;;14.90;99.90;;;13.97;92.58;97376.41;4971956;28;20932;-72
2022/09/02 01:33:10;;;;;;;11.07;6.20;;;14.90;99.90;;;13.97;93.75;97373.75;4971458;28;20559;-72
2022/09/02 01:35:37;;;;;;;11.93;6.05;;;14.90;99.90;;;14.01;91.22;97380.09;4971768;28;20423;-72
2022/09/02 01:38:04;;;;;;;7.85;5.97;;;14.90;99.90;;;13.94;92.97;97383.06;4972028;28;20404;-72
2022/09/02 01:40:33;;;;;;;8.15;5.43;;;14.90;99.90;;;13.97;90.94;97379.88;4971787;28;20896;-72
2022/09/02 01:43:02;;;;;;;12.50;6.13;;;14.90;99.90;;;13.94;91.24;97383.06;4971488;28;20416;-72
2022/09/02 01:45:29;;;;;;;8.13;5.57;;;14.80;99.90;;;13.95;90.43;97377.47;4971745;28;20400;-72
2022/09/02 01:47:55;;;;;;;12.65;6.05;;;14.80;99.90;;;13.87;93.03;97390.53;4971780;28;20411;-73
2022/09/02 01:50:21;;;;;;;9.40;6.23;;;14.80;99.90;;;13.84;93.86;97380.41;4971909;28;20404;-72
2022/09/02 01:52:47;;;;;;;8.02;5.55;;;14.80;99.90;;;13.86;93.45;97383.63;4969978;28;20431;-72
2022/09/02 01:55:13;;;;;;;8.73;6.15;;;14.80;99.90;;;13.84;94.75;97375.91;4984806;23;20515;-72
2022/09/02 01:57:41;;;;;;;9.30;6.18;;;14.80;99.90;;;13.84;95.16;97372.44;4971783;28;20412;-73
2022/09/02 02:00:10;;;;;;;7.75;5.20;;;14.80;99.90;;;13.87;93.84;97371.91;4971678;28;20906;-72
2022/09/02 02:02:36;;;;;;;7.17;5.03;;;14.80;99.90;;;13.90;90.69;97369.50;4971214;28;20431;-73
2022/09/02 02:05:04;;;;;;;9.38;5.70;;;14.80;99.90;;;13.84;91.46;97367.91;4978281;28;20896;-73
2022/09/02 02:07:30;;;;;;;6.45;5.03;;;14.70;99.90;;;13.79;91.84;97377.78;4990942;28;20402;-72
2022/09/02 02:09:56;;;;;;;11.20;6.40;;;14.70;99.90;;;13.73;94.37;97377.03;4990986;28;20442;-72
2022/09/02 02:12:22;;;;;;;9.10;5.40;;;14.70;99.90;;;13.72;95.11;97370.09;4990859;28;20410;-72
2022/09/02 02:14:49;;;;;;;6.38;5.50;;;14.70;99.90;;;13.72;95.84;97375.41;4990399;28;20484;-74
2022/09/02 02:17:15;;;;;;;9.30;5.65;;;14.70;99.90;;;13.74;95.52;97377.81;4990964;28;20426;-73
2022/09/02 02:19:42;;;;;;;6.72;5.80;;;14.60;99.90;;;13.75;96.23;97377.56;4990946;28;20406;-73
2022/09/02 02:22:09;;;;;;;5.97;5.00;;;14.70;99.90;;;13.77;94.74;97374.59;4990816;28;20742;-73
2022/09/02 02:24:35;;;;;;;6.50;4.90;;;14.70;99.90;;;13.75;94.63;97376.75;4972763;28;20413;-73
2022/09/02 02:27:01;;;;;;;7.90;5.70;;;14.60;99.90;;;13.72;93.95;97371.97;4990959;28;20903;-73
2022/09/02 02:29:27;;;;;;;12.55;4.20;;;14.60;99.90;;;13.74;94.89;97365.31;4990827;28;20818;-73
2022/09/02 02:31:55;;;;;;;5.85;4.70;;;14.60;99.90;;;13.80;94.87;97366.09;4990855;28;20956;-73
2022/09/02 02:34:21;;;;;;;8.70;4.70;;;14.70;99.90;;;13.82;91.45;97366.63;4990214;28;20414;-73
2022/09/02 02:36:47;;;;;;;8.02;4.05;;;14.70;99.90;;;13.84;91.79;97370.59;4993017;28;20440;-73
2022/09/02 02:39:13;;;;;;;6.20;4.18;;;14.70;99.90;;;13.82;89.74;97367.41;4994515;28;20911;-74
2022/09/02 02:41:40;;;;;;;6.13;4.20;;;14.70;99.90;;;13.83;91.45;97361.00;4994441;28;20407;-73
2022/09/02 02:44:07;;;;;;;5.87;4.50;;;14.70;99.90;;;13.82;93.01;97356.78;4994119;28;20896;-74
2022/09/02 02:46:34;;;;;;;5.57;4.15;;;14.70;99.90;;;13.85;92.80;97355.41;4994241;28;20745;-74
2022/09/02 02:49:02;;;;;;;7.07;4.43;;;14.70;99.90;;;13.86;93.36;97359.66;4994362;28;20426;-74
2022/09/02 02:51:28;;;;;;;5.47;3.90;;;14.70;99.90;;;13.85;89.77;97363.41;4994332;28;20760;-74
2022/09/02 02:53:54;;;;;;;5.18;3.70;;;14.70;99.90;;;13.86;88.63;97365.00;4993800;28;20497;-73
2022/09/02 02:56:21;;;;;;;6.95;4.28;;;14.70;99.90;;;13.79;91.08;97359.97;4994050;28;20497;-72
2022/09/02 02:58:47;;;;;;;7.15;3.72;;;14.70;99.90;;;13.83;84.77;97357.56;4994288;28;20407;-72
2022/09/02 03:01:13;;;;;;;5.37;4.17;;;14.60;99.90;;;13.76;88.61;97354.38;4994179;28;20407;-72
2022/09/02 03:03:41;;;;;;;6.50;3.78;;;14.60;99.90;;;13.76;81.49;97354.38;4993672;28;20402;-73
2022/09/02 03:06:08;;;;;;;7.50;3.80;;;14.60;99.90;;;13.68;84.74;97358.41;4994080;28;20768;-73
2022/09/02 03:08:36;;;;;;;6.20;3.63;;;14.50;99.90;;;13.65;82.88;97360.81;4993891;28;20465;-73
2022/09/02 03:11:05;;;;;;;5.20;3.80;;;14.50;99.90;;;13.57;85.53;97349.66;4993988;28;20398;-73
2022/09/02 03:13:32;;;;;;;5.82;4.20;;;14.50;99.90;;;13.56;85.40;97355.25;4993517;28;20410;-73
2022/09/02 03:15:59;;;;;;;6.87;3.33;;;14.40;99.90;;;13.59;83.23;97353.94;4993769;28;20487;-73
2022/09/02 03:18:25;;;;;;;5.90;4.03;;;14.40;99.90;;;13.51;85.61;97357.94;4993739;28;20411;-73
2022/09/02 03:20:51;;;;;;;4.90;3.67;;;14.40;99.90;;;13.53;85.67;97356.56;4993868;28;20497;-74
2022/09/02 03:23:19;;;;;;;4.25;3.85;;;14.40;99.90;;;13.50;87.00;97351.03;4993145;28;20486;-73
2022/09/02 03:25:45;;;;;;;7.38;3.60;;;14.30;99.90;;;13.47;88.46;97351.53;4993654;28;20406;-73
2022/09/02 03:28:12;;;;;;;6.68;4.18;;;14.30;99.90;;;13.46;90.05;97347.28;4993571;28;20413;-72
2022/09/02 03:30:40;;;;;;;7.50;4.43;;;14.40;99.90;;;13.48;90.69;97355.81;4993668;28;20406;-72
2022/09/02 03:33:06;;;;;;;6.90;4.43;;;14.40;99.90;;;13.47;90.13;97351.53;4993005;28;20896;-72
2022/09/02 03:35:38;;;;;;;6.07;3.83;;;14.40;99.90;;;13.47;91.97;97351.53;4993316;28;20418;-72
2022/09/02 03:38:04;;;;;;;8.93;4.47;;;14.40;99.90;;;13.50;89.12;97351.81;4993429;28;20876;-72
2022/09/02 03:40:31;;;;;;;5.25;4.05;;;14.40;99.90;;;13.48;90.06;97353.94;4993387;28;20417;-73
2022/09/02 03:42:57;;;;;;;6.63;3.83;;;14.30;99.90;;;13.44;89.78;97352.91;4992836;28;20425;-73
2022/09/02 03:45:23;;;;;;;6.68;4.38;;;14.30;99.90;;;13.41;91.30;97353.44;4975810;28;20446;-72
2022/09/02 03:47:52;;;;;;;5.00;3.83;;;14.30;99.90;;;13.40;92.41;97345.72;4974758;28;20410;-72
2022/09/02 03:50:20;;;;;;;5.47;3.78;;;14.30;99.90;;;13.39;88.13;97350.22;4993257;28;20406;-72
2022/09/02 03:52:46;;;;;;;5.18;3.83;;;14.30;99.90;;;13.36;90.25;97345.47;4992556;28;20414;-72
2022/09/02 03:55:12;;;;;;;6.05;3.83;;;14.20;99.90;;;13.33;90.58;97345.19;4992912;28;20434;-73
2022/09/02 03:57:39;;;;;;;7.82;3.75;;;14.20;99.90;;;13.31;90.34;97347.31;4993237;28;20505;-72
2022/09/02 04:00:13;;;;;;;5.75;4.38;;;14.20;99.90;;;13.29;92.49;97347.63;4993032;28;20944;-73
2022/09/02 04:02:40;;;;;;;5.65;4.38;;;14.20;99.90;;;13.28;91.88;97348.69;4990901;28;20958;-73
2022/09/02 04:05:07;;;;;;;6.10;4.05;;;14.20;99.90;;;13.29;92.67;97354.78;4988518;28;20457;-73
2022/09/02 04:07:33;;;;;;;5.05;4.10;;;14.20;99.90;;;13.28;93.26;97348.69;4992771;28;20433;-73
2022/09/02 04:09:59;;;;;;;5.75;3.67;;;14.20;99.90;;;13.31;90.92;97349.97;4992812;28;20498;-73
2022/09/02 04:12:25;;;;;;;5.67;3.87;;;14.20;99.90;;;13.26;92.68;97348.13;4992603;28;20462;-73
2022/09/02 04:14:53;;;;;;;8.93;3.60;;;14.20;99.90;;;13.29;89.03;97350.28;4974716;28;20513;-73
2022/09/02 04:21:18;;;;;;;7.43;3.65;;;14.10;99.90;;;13.13;91.05;97352.16;4993064;28;20394;-73
2022/09/02 04:23:44;;;;;;;4.95;3.80;;;14.10;99.90;;;13.10;92.98;97350.00;4992081;28;20442;-72
2022/09/02 04:26:14;;;;;;;5.47;3.60;;;14.00;99.90;;;13.12;87.94;97355.03;4992559;28;20469;-73
2022/09/02 04:28:41;;;;;;;5.45;3.80;;;14.00;99.90;;;13.09;89.88;97350.25;4992588;28;20760;-72
2022/09/02 04:31:11;;;;;;;4.63;3.70;;;13.90;99.90;;;13.07;91.45;97355.88;4992631;28;20402;-73
2022/09/02 04:33:38;;;;;;;6.55;3.95;;;14.00;99.90;;;13.03;92.23;97344.16;4991962;28;20398;-72
2022/09/02 04:36:07;;;;;;;7.95;3.75;;;14.00;99.90;;;13.08;92.33;97348.69;4974768;28;20533;-73
2022/09/02 04:38:34;;;;;;;6.28;3.72;;;14.00;99.90;;;13.06;92.47;97346.28;4992114;28;20506;-71
2022/09/02 04:41:04;;;;;;;8.20;4.10;;;14.00;99.90;;;13.08;89.81;97346.03;4992210;28;20403;-72
2022/09/02 04:43:30;;;;;;;5.90;4.30;;;13.90;99.90;;;13.00;92.06;97344.72;4991723;28;20438;-72
2022/09/02 04:45:56;;;;;;;5.95;4.20;;;13.90;99.90;;;13.01;92.92;97342.81;4992109;28;20749;-73
2022/09/02 04:48:23;;;;;;;6.68;4.18;;;13.90;99.90;;;12.98;93.97;97340.72;4992086;28;20406;-72
2022/09/02 04:50:49;;;;;;;9.30;4.55;;;13.90;99.90;;;12.98;94.84;97343.38;4992032;28;20414;-73
2022/09/02 04:53:15;;;;;;;4.87;4.17;;;13.90;99.90;;;13.00;94.84;97341.25;4991497;28;20399;-72
2022/09/02 04:55:43;;;;;;;6.87;3.87;;;13.90;99.90;;;13.02;91.85;97337.25;4991130;28;20850;-73
2022/09/02 04:58:09;;;;;;;5.32;4.18;;;13.90;99.90;;;12.97;92.93;97345.22;4991914;28;20403;-73
2022/09/02 05:00:37;;;;;;;6.77;4.50;;;13.90;99.90;;;12.97;95.06;97347.09;4991851;28;20460;-73
2022/09/02 05:03:05;;;;;;;5.03;4.53;;;13.90;99.90;;;12.95;95.14;97344.69;4991266;28;20884;-74
2022/09/02 05:05:33;;;;;;;7.63;4.63;;;13.90;99.90;;;12.99;95.29;97344.97;4991654;28;20399;-73
2022/09/02 05:07:59;;;;;;;5.30;4.45;;;13.90;99.90;;;12.97;94.22;97347.88;4991806;28;20430;-73
2022/09/02 05:10:25;;;;;;;6.88;4.10;;;13.90;99.90;;;12.98;95.26;97349.47;4991746;28;20410;-73
2022/09/02 05:12:51;;;;;;;5.87;4.20;;;13.90;99.90;;;13.00;93.74;97349.22;4991170;28;20575;-73
2022/09/02 05:15:17;;;;;;;6.55;4.63;;;13.90;99.90;;;12.99;94.91;97343.09;4991557;28;20514;-73
2022/09/02 05:17:45;;;;;;;7.80;4.20;;;13.90;99.90;;;13.02;95.09;97339.09;4991660;28;20410;-73
2022/09/02 05:20:12;;;;;;;8.82;4.25;;;13.90;99.90;;;13.04;94.86;97340.44;4974092;28;20418;-72
2022/09/02 05:22:39;;;;;;;7.13;5.00;;;14.00;99.90;;;13.06;96.05;97345.50;4991634;28;20745;-73
2022/09/02 05:25:08;;;;;;;8.30;4.32;;;14.00;99.90;;;13.11;95.68;97348.13;4991366;28;20468;-72
2022/09/02 05:27:35;;;;;;;6.50;4.53;;;14.00;99.90;;;13.09;96.40;97355.56;4973997;28;20414;-73
2022/09/02 05:30:02;;;;;;;6.30;4.35;;;14.00;99.90;;;13.11;96.23;97353.44;4991384;28;20406;-73
2022/09/02 05:32:28;;;;;;;5.40;4.80;;;14.00;99.90;;;13.11;97.47;97348.94;4991167;28;20490;-72
2022/09/02 05:34:54;;;;;;;11.80;4.80;;;14.00;99.90;;;13.16;97.18;97350.81;4990802;28;20419;-73
2022/09/02 05:37:21;;;;;;;6.97;4.43;;;14.10;99.90;;;13.19;97.24;97347.63;4991311;28;20418;-73
2022/09/02 05:39:49;;;;;;;7.97;4.68;;;14.10;99.90;;;13.21;94.96;97345.50;4991311;28;20419;-73
2022/09/02 05:42:15;;;;;;;5.50;4.18;;;14.10;99.90;;;13.23;95.24;97348.66;4991347;28;20453;-73
2022/09/02 05:44:43;;;;;;;10.18;4.38;;;14.10;99.90;;;13.25;96.00;97348.41;4990741;28;20461;-73
2022/09/02 05:47:10;;;;;;;6.30;4.17;;;14.10;99.90;;;13.27;96.46;97339.09;4991255;28;20410;-73
2022/09/02 05:49:36;;;;;;;7.18;4.30;;;14.20;99.90;;;13.28;96.25;97348.69;4990957;28;20405;-72
2022/09/02 05:52:03;;;;;;;7.25;4.70;;;14.20;99.90;;;13.29;97.03;97336.97;4991076;28;20410;-73
2022/09/02 05:54:32;;;;;;;7.65;4.38;;;14.20;99.90;;;13.31;96.17;97342.81;4990242;28;20403;-73
2022/09/02 05:57:05;;;;;;;8.90;4.20;;;14.20;99.90;;;13.33;96.16;97339.88;4990975;28;20407;-73
2022/09/02 05:59:40;;;;;;;5.95;4.25;;;14.20;99.90;;;13.34;96.82;97341.47;4990923;28;20413;-73
2022/09/02 06:02:08;;;;;;;8.73;4.28;;;14.20;99.90;;;13.37;96.37;97347.06;4991165;28;20464;-73
2022/09/02 06:04:38;;;;;;;5.57;4.45;;;14.30;99.90;;;13.38;97.21;97343.31;4990417;28;20892;-72
2022/09/02 06:07:04;;;;;;;6.68;4.90;;;14.30;99.90;;;13.43;97.13;97350.50;4990970;28;20740;-73
2022/09/02 06:09:30;;;;;;;9.25;5.20;;;14.30;99.90;;;13.50;97.78;97351.03;4990978;28;20636;-74
2022/09/02 06:11:56;;;;;;;7.35;5.03;;;14.30;99.90;;;13.55;98.08;97351.00;4993810;28;20863;-73
2022/09/02 06:14:25;;;;;;;7.20;4.50;;;14.40;99.90;;;13.63;97.30;97347.78;4994291;28;20414;-73
2022/09/02 06:16:53;;;;;;;6.75;4.35;;;14.50;99.90;;;13.70;96.52;97347.50;4988914;28;20422;-72
2022/09/02 06:19:20;;;;;;;6.03;4.07;;;14.50;99.90;;;13.74;95.56;97348.56;4977005;28;20898;-73
2022/09/02 06:21:47;;;;;;;7.32;4.40;;;14.60;99.90;;;13.77;92.94;97350.66;4988627;28;20494;-73
2022/09/02 06:24:14;;;;;;;5.47;4.35;;;14.60;99.90;;;13.83;94.13;97344.28;4993978;28;20489;-73
2022/09/02 06:26:40;;;;;;;6.70;4.20;;;14.60;99.90;;;13.88;94.36;97338.91;4994131;28;20406;-73
2022/09/02 06:29:09;;;;;;;6.20;4.30;;;14.70;99.90;;;13.93;93.93;97345.00;4991623;28;20410;-73
2022/09/02 06:31:39;;;;;;;7.60;3.95;;;14.80;99.90;;;13.98;92.96;97343.41;4993954;28;20398;-73
2022/09/02 06:34:04;;;;;;;6.88;4.20;;;14.80;99.90;;;13.99;90.98;97342.31;4993917;28;20403;-73
2022/09/02 06:36:30;;;;;;;6.93;4.03;;;14.80;99.90;;;13.99;89.62;97343.09;4994354;28;20950;-73
2022/09/02 06:38:58;;;;;;;8.40;4.25;;;14.80;99.90;;;14.02;87.75;97345.22;4994386;28;20407;-73
2022/09/02 06:41:28;;;;;;;8.05;4.53;;;14.80;99.90;;;14.10;90.22;97343.88;4994191;28;20915;-73
2022/09/02 06:43:56;;;;;;;6.20;4.35;;;14.90;99.90;;;14.16;90.36;97348.88;4994019;28;20399;-73
2022/09/02 06:46:25;;;;;;;8.68;4.35;;;15.00;99.90;;;14.22;90.88;97349.66;4993986;28;20407;-73
2022/09/02 06:48:52;;;;;;;7.35;4.43;;;15.00;99.90;;;14.27;91.06;97344.31;4994173;28;20413;-73
2022/09/02 06:51:21;;;;;;;5.53;3.80;;;15.10;99.90;;;14.32;91.44;97349.59;4994167;28;20407;-74
2022/09/02 06:53:46;;;;;;;10.47;4.17;;;15.10;99.90;;;14.41;91.68;97349.84;4993533;28;20411;-74
2022/09/02 06:56:12;;;;;;;7.65;3.85;;;15.20;99.90;;;14.43;90.58;97345.03;4993942;28;20418;-74
2022/09/02 06:58:39;;;;;;;9.55;3.78;;;15.20;99.90;;;14.41;83.65;97345.31;4994217;28;20900;-73
2022/09/02 07:01:06;;;;;;;7.50;3.80;;;15.20;99.90;;;14.48;86.51;97350.34;4994133;28;20414;-73
2022/09/02 07:06:18;;;;;;;6.82;3.85;;;15.30;99.90;;;14.57;87.70;97343.34;4991766;28;20405;-73
2022/09/02 07:08:44;;;;;;;6.23;4.07;;;15.40;99.90;;;14.65;88.33;97350.75;4989120;28;20550;-73
2022/09/02 07:11:17;;;;;;;6.70;3.90;;;15.40;99.90;;;14.68;86.31;97344.84;4987461;28;20457;-73
2022/09/02 07:13:43;;;;;;;6.90;3.65;;;15.40;99.90;;;14.69;81.67;97341.91;4982571;28;20444;-75
2022/09/02 07:16:09;;;;;;;7.68;3.72;;;15.50;99.90;;;14.80;84.71;97341.84;4985400;28;20423;-75
2022/09/02 07:18:35;;;;;;;7.93;3.90;;;15.50;99.90;;;14.87;85.99;97339.66;4982542;28;20443;-75
2022/09/02 07:21:02;;;;;;;8.25;3.90;;;15.60;99.90;;;14.93;85.13;97331.34;4983865;28;20912;-75
2022/09/02 07:23:30;;;;;;;7.37;3.77;;;15.70;99.90;;;15.01;86.60;97325.41;4982427;28;20571;-75
2022/09/02 07:25:56;;;;;;;9.93;3.97;;;15.80;99.90;;;15.06;83.88;97327.22;4984425;28;20907;-75
2022/09/02 07:28:22;;;;;;;5.35;3.50;;;15.80;99.90;;;15.15;84.15;97322.88;4987397;28;20408;-75
2022/09/02 07:30:48;;;;;;;6.50;4.00;;;15.90;99.90;;;15.24;84.87;97325.72;4985389;28;20410;-76
2022/09/02 07:33:15;;;;;;;6.95;3.70;;;16.00;99.90;;;15.28;84.11;97332.88;4983534;28;20416;-75
2022/09/02 07:35:41;;;;;;;7.70;3.67;;;16.00;99.90;;;15.37;83.38;97330.38;4978997;28;20425;-76
2022/09/02 07:38:09;;;;;;;8.95;3.40;;;16.10;99.90;;;15.44;84.10;97320.16;4984314;28;20436;-76
2022/09/02 07:40:38;;;;;;;5.65;3.80;;;16.20;99.90;;;15.50;84.90;97325.16;4982570;28;20515;-77
2022/09/02 07:43:06;;;;;;;7.13;3.40;;;16.30;99.90;;;15.59;84.90;97324.56;4982148;28;20398;-76
2022/09/02 07:45:34;;;;;;;5.70;3.30;;;16.30;99.90;;;15.64;83.92;97325.28;4982072;28;20407;-76
2022/09/02 07:48:01;;;;;;;5.22;2.90;;;16.40;99.90;;;15.72;77.73;97326.53;4982988;28;20418;-76
2022/09/02 07:50:27;;;;;;;6.05;3.03;;;16.50;99.90;;;15.86;79.38;97324.78;4984086;28;20954;-76
2022/09/02 07:52:55;;;;;;;4.00;2.70;;;16.50;99.90;;;15.94;79.03;97326.81;4980711;28;20414;-76
2022/09/02 07:55:22;;;;;;;3.70;2.40;;;16.60;99.90;;;15.98;77.80;97325.16;4992050;23;20566;-72
2022/09/02 07:57:50;;;;;;;5.55;2.70;;;16.70;99.90;;;16.03;75.98;97330.44;4966427;28;20878;-74
2022/09/02 08:00:18;;;;;;;6.22;2.60;;;16.70;99.90;;;16.10;77.54;97327.41;4964032;28;20410;-88
2022/09/02 08:02:45;;;;;;;6.95;2.55;;;16.80;99.90;;;16.15;77.56;97317.47;4964585;28;20404;-77
2022/09/02 08:05:12;;;;;;;11.60;2.43;;;16.90;99.90;;;16.21;77.93;97327.00;4957005;28;20530;-74
2022/09/02 08:07:38;;;;;;;4.70;2.50;;;16.90;99.90;;;16.23;74.72;97316.03;4944930;29;20400;-74
2022/09/02 08:10:09;;;;;;;4.40;2.42;;;17.00;99.90;;;16.26;72.68;97326.91;4943271;28;20418;-75
2022/09/02 08:12:35;;;;;;;4.30;2.70;;;17.00;99.90;;;16.33;75.34;97323.88;4943652;28;21015;-75
2022/09/02 08:15:04;;;;;;;5.68;2.45;;;17.00;99.90;;;16.37;75.25;97322.22;4944761;28;20481;-74
2022/09/02 08:17:30;;;;;;;4.40;2.15;;;17.10;99.90;;;16.51;76.43;97327.63;4950259;28;20409;-74
2022/09/02 08:19:57;;;;;;;4.50;2.33;;;17.20;99.90;;;16.52;76.38;97330.03;4952758;28;20553;-74
2022/09/02 08:22:24;;;;;;;3.80;2.22;;;17.20;99.90;;;16.58;77.13;97326.19;4952965;28;20409;-74
2022/09/02 08:24:50;;;;;;;3.70;2.10;;;17.30;99.90;;;16.63;78.15;97323.44;4952702;28;20485;-74
2022/09/02 08:27:16;;;;;;;6.10;2.07;;;17.30;99.90;;;16.70;77.17;97338.31;4953029;28;20409;-74
2022/09/02 08:29:42;;;;;;;8.05;2.38;;;17.40;99.90;;;16.81;76.13;97335.22;4953048;28;20421;-74
2022/09/02 08:32:09;;;;;;;3.53;2.25;;;17.40;99.90;;;16.87;76.47;97333.25;4953142;28;20433;-74
2022/09/02 08:34:35;;;;;;;4.20;2.10;;;17.50;99.90;;;16.87;75.73;97327.91;4952196;28;20449;-72
2022/09/02 08:37:01;;;;;;;3.90;2.10;;;17.50;99.90;;;16.88;74.79;97332.94;4953713;28;20409;-73
2022/09/02 08:39:27;;;;;;;3.53;1.98;;;17.60;99.90;;;16.90;69.49;97320.09;4953634;28;20912;-73
2022/09/02 08:42:04;;;;;;;3.08;1.90;;;17.70;99.90;;;17.00;73.59;97333.28;4953525;28;20429;-73
2022/09/02 08:44:36;;;;;;;4.20;1.70;;;17.70;99.90;;;17.10;73.43;97320.81;4953061;28;20422;-74
2022/09/02 08:47:05;;;;;;;8.10;2.33;;;17.80;99.90;;;17.18;74.51;97320.16;4953585;28;20410;-73
2022/09/02 08:49:39;;;;;;;3.17;1.65;;;17.80;99.90;;;17.26;70.30;97311.44;4953501;28;20497;-73
2022/09/02 08:52:05;;;;;;;4.00;1.77;;;17.90;99.90;;;17.27;67.06;97327.19;4953400;28;20417;-74
2022/09/02 08:54:44;;;;;;;2.67;1.80;;;18.00;96.50;;;17.44;68.36;97315.94;4952827;28;20409;-74
2022/09/02 08:57:11;;;;;;;3.97;2.00;;;18.10;98.70;;;17.41;65.46;97319.97;4953364;28;20494;-73
2022/09/02 08:59:38;;;;;;;2.80;1.63;;;18.10;94.40;;;17.50;67.97;97314.75;4953129;28;20414;-74
2022/09/02 09:02:20;;;;;;;5.47;1.70;;;18.10;96.80;;;17.55;65.04;97317.31;4953190;28;20872;-73
2022/09/02 09:05:08;;;;;;;3.43;1.73;;;18.20;93.70;;;17.63;59.38;97307.81;4952751;28;20478;-73
2022/09/02 09:07:45;;;;;;;4.32;1.80;;;18.30;85.30;;;17.62;59.20;97308.91;4953240;28;20410;-74
2022/09/02 09:10:20;;;;;;;4.55;1.88;;;18.30;85.60;;;17.81;64.23;97309.59;4952078;28;20426;-75
2022/09/02 09:13:22;;;;;;;3.42;1.80;;;18.40;92.00;;;17.83;65.86;97307.41;4952694;28;20705;-74
2022/09/02 09:15:58;;;;;;;4.50;1.90;;;18.50;93.30;;;17.79;64.45;97293.84;4940765;28;20425;-74
2022/09/02 09:18:37;;;;;;;2.22;1.52;;;18.50;92.80;;;17.80;64.45;97305.34;4953129;28;20406;-74
2022/09/02 09:21:05;;;;;;;3.00;1.63;;;18.50;91.60;;;17.95;63.97;97298.88;4952972;28;20414;-75
2022/09/02 09:23:34;;;;;;;4.63;1.70;;;18.60;91.90;;;18.03;67.98;97298.97;4952482;28;20835;-75
2022/09/02 09:26:07;;;;;;;4.27;1.70;;;18.60;95.00;;;17.97;60.35;97300.16;4952837;28;20398;-75
2022/09/02 09:28:40;;;;;;;3.50;1.70;;;18.60;88.60;;;18.10;59.94;97294.00;4952329;28;20524;-75
2022/09/02 09:31:10;;;;;;;3.22;1.67;;;18.70;86.70;;;18.26;64.29;97286.41;4952917;28;20903;-76
2022/09/02 09:33:37;;;;;;;3.58;1.90;;;18.80;91.30;;;18.23;65.49;97289.69;4952235;28;20768;-76
2022/09/02 09:36:04;;;;;;;4.85;1.85;;;18.80;92.10;;;18.31;62.53;97288.97;4952483;28;20907;-76
2022/09/02 09:38:34;;;;;;;2.47;1.60;;;18.90;90.10;;;18.37;60.01;97282.38;4952730;28;20904;-75
2022/09/02 09:41:14;;;;;;;3.00;1.50;;;19.00;86.00;;;18.41;58.06;97294.09;4952772;28;21034;-74
2022/09/02 09:43:40;;;;;;;4.55;1.50;;;19.00;81.90;;;18.43;59.46;97289.22;4952030;28;20553;-75
2022/09/02 09:46:27;;;;;;;3.72;1.50;;;19.10;85.20;;;18.57;60.74;97289.19;4951947;28;20435;-74
2022/09/02 09:48:53;;;;;;;4.90;1.88;;;19.10;86.40;;;18.56;59.10;97287.63;4952605;28;20413;-74
2022/09/02 09:51:21;;;;;;;2.83;1.42;;;19.20;82.70;;;18.63;56.75;97281.81;4952462;28;20958;-74
2022/09/02 09:53:47;;;;;;;5.95;1.70;;;19.20;81.30;;;18.53;54.50;97285.50;4951965;28;20887;-75
2022/09/02 09:56:32;;;;;;;2.97;1.67;;;19.20;77.40;;;18.54;58.07;97274.47;4952302;28;20456;-74
2022/09/02 09:58:58;;;;;;;3.58;1.63;;;19.20;81.00;;;18.62;60.14;97273.00;4952513;28;20402;-75
2022/09/02 10:01:28;;;;;;;3.67;1.70;;;19.20;83.70;;;18.77;64.72;97274.50;4952594;28;20424;-74
2022/09/02 10:03:59;;;;;;;2.40;1.35;;;19.30;90.30;;;18.79;59.48;97275.00;4952012;28;20417;-75
2022/09/02 10:06:39;;;;;;;3.92;1.85;;;19.40;83.10;;;18.91;61.16;97272.53;4952321;28;20410;-75
2022/09/02 10:09:27;;;;;;;2.35;1.38;;;19.50;86.30;;;19.15;57.29;97269.50;4952471;28;20410;-74
2022/09/02 10:11:56;;;;;;;2.10;1.45;;;19.70;81.20;;;19.14;56.05;97274.06;4952426;28;20448;-75
2022/09/02 10:14:25;;;;;;;4.37;1.73;;;19.80;79.30;;;19.24;55.38;97262.28;4951904;28;20931;-75
2022/09/02 10:17:04;;;;;;;3.67;1.45;;;19.90;77.80;;;19.42;58.83;97261.22;4952277;28;20414;-75
2022/09/02 10:19:37;;;;;;;4.90;1.50;;;20.00;81.30;;;19.45;58.02;97266.00;4952298;28;20410;-74
2022/09/02 10:22:59;;;;;;;3.17;1.50;;;20.10;80.20;;;19.47;52.25;97266.47;4952333;28;20402;-75
2022/09/02 10:25:33;;;;;;;2.25;1.40;;;20.10;73.80;;;19.70;55.28;97262.59;4952173;28;20410;-74
2022/09/02 10:28:11;;;;;;;2.33;1.33;;;20.30;78.30;;;19.63;52.23;97261.47;4952160;28;20768;-74
2022/09/02 10:30:48;;;;;;;2.20;1.38;;;20.30;73.60;;;19.60;50.22;97249.50;4952195;28;20413;-74